createdAt,value
2023-04-01T00:00:23.977Z,163.35
2023-04-01T00:01:23.969Z,162.60
2023-04-01T00:02:24.047Z,162.53
2023-04-01T00:03:24.098Z,162.26
2023-04-01T00:04:23.995Z,163.62
2023-04-01T00:05:23.945Z,163.70
2023-04-01T00:06:23.960Z,163.61
2023-04-01T00:07:23.956Z,162.46
2023-04-01T00:08:23.928Z,161.49
2023-04-01T00:09:23.956Z,164.24
2023-04-01T00:10:23.914Z,165.14
2023-04-01T00:11:23.904Z,163.80
2023-04-01T00:12:23.931Z,163.36
2023-04-01T00:13:23.915Z,164.18
2023-04-01T00:14:23.905Z,163.92
2023-04-01T00:15:23.880Z,163.82
2023-04-01T00:16:23.895Z,162.96
2023-04-01T00:17:23.893Z,163.82
2023-04-01T00:18:23.910Z,162.14
2023-04-01T00:19:23.864Z,163.44
2023-04-01T00:20:23.846Z,164.63
2023-04-01T00:21:23.864Z,162.24
2023-04-01T00:22:23.843Z,164.83
2023-04-01T00:23:23.834Z,163.91
2023-04-01T00:24:23.828Z,162.55
2023-04-01T00:25:23.817Z,163.58
2023-04-01T00:26:23.817Z,162.66
2023-04-01T00:27:23.803Z,163.49
2023-04-01T00:28:23.763Z,163.76
2023-04-01T00:29:23.798Z,161.18
2023-04-01T00:30:23.787Z,162.52
2023-04-01T00:31:23.812Z,162.36
2023-04-01T00:32:23.814Z,161.11
2023-04-01T00:33:23.782Z,160.73
2023-04-01T00:34:23.745Z,161.97
2023-04-01T00:35:23.745Z,162.39
2023-04-01T00:36:23.773Z,160.22
2023-04-01T00:37:23.725Z,161.59
2023-04-01T00:38:23.737Z,162.80
2023-04-01T00:39:23.717Z,162.16
2023-04-01T00:40:23.690Z,160.39
2023-04-01T00:41:23.703Z,161.29
2023-04-01T00:42:23.707Z,160.86
2023-04-01T00:43:23.670Z,161.46
2023-04-01T00:44:23.687Z,160.36
2023-04-01T00:45:23.733Z,160.92
2023-04-01T00:46:23.718Z,160.15
2023-04-01T00:47:23.659Z,159.66
2023-04-01T00:48:23.687Z,159.22
2023-04-01T00:49:23.646Z,160.35
2023-04-01T00:50:23.671Z,160.21
2023-04-01T00:51:23.630Z,159.94
2023-04-01T00:52:23.604Z,158.62
2023-04-01T00:53:23.635Z,160.57
2023-04-01T00:54:23.614Z,159.90
2023-04-01T00:55:23.627Z,159.20
2023-04-01T00:56:23.656Z,158.45
2023-04-01T00:57:23.649Z,158.70
2023-04-01T00:58:23.590Z,157.94
2023-04-01T00:59:23.594Z,159.44
2023-04-01T01:00:23.593Z,159.39
2023-04-01T01:01:23.581Z,157.90
2023-04-01T01:02:23.570Z,159.12
2023-04-01T01:03:23.573Z,157.88
2023-04-01T01:04:23.555Z,158.82
2023-04-01T01:05:25.026Z,158.66
2023-04-01T01:06:23.568Z,157.29
2023-04-01T01:07:23.516Z,156.58
2023-04-01T01:08:23.508Z,156.20
2023-04-01T01:09:23.511Z,155.87
2023-04-01T01:10:23.493Z,156.77
2023-04-01T01:11:23.894Z,157.62
2023-04-01T01:12:23.467Z,157.54
2023-04-01T01:13:23.472Z,157.59
2023-04-01T01:14:23.481Z,155.27
2023-04-01T01:15:23.469Z,155.23
2023-04-01T01:16:23.493Z,156.63
2023-04-01T01:17:23.491Z,155.58
2023-04-01T01:18:23.454Z,154.91
2023-04-01T01:19:23.469Z,158.07
2023-04-01T01:20:26.519Z,154.34
2023-04-01T01:21:23.401Z,159.65
2023-04-01T01:22:23.401Z,153.97
2023-04-01T01:23:24.283Z,155.29
2023-04-01T01:24:23.395Z,158.87
2023-04-01T01:25:23.381Z,156.45
2023-04-01T01:26:23.390Z,156.35
2023-04-01T01:27:23.361Z,155.86
2023-04-01T01:28:23.367Z,153.18
2023-04-01T01:29:23.373Z,154.78
2023-04-01T01:30:23.344Z,154.08
2023-04-01T01:31:23.398Z,153.21
2023-04-01T01:32:23.342Z,153.77
2023-04-01T01:33:23.333Z,153.86
2023-04-01T01:34:23.341Z,152.91
2023-04-01T01:35:23.333Z,153.42
2023-04-01T01:36:23.340Z,154.00
2023-04-01T01:37:23.325Z,152.21
2023-04-01T01:38:23.302Z,154.67
2023-04-01T01:39:23.317Z,151.42
2023-04-01T01:40:23.289Z,151.90
2023-04-01T01:41:23.278Z,151.47
2023-04-01T01:42:23.247Z,155.06
2023-04-01T01:43:23.264Z,152.46
2023-04-01T01:44:23.266Z,151.18
2023-04-01T01:45:23.243Z,151.36
2023-04-01T01:46:23.336Z,152.19
2023-04-01T01:47:23.268Z,151.74
2023-04-01T01:48:23.228Z,151.89
2023-04-01T01:49:23.240Z,152.66
2023-04-01T01:50:23.243Z,151.04
2023-04-01T01:51:23.218Z,150.52
2023-04-01T01:52:23.201Z,149.15
2023-04-01T01:53:23.211Z,149.83
2023-04-01T01:54:23.176Z,149.94
2023-04-01T01:55:23.167Z,151.84
2023-04-01T01:56:23.180Z,151.43
2023-04-01T01:57:23.220Z,151.61
2023-04-01T01:58:23.147Z,148.96
2023-04-01T01:59:23.151Z,149.52
2023-04-01T02:00:23.110Z,150.29
2023-04-01T02:01:23.185Z,149.74
2023-04-01T02:02:23.132Z,147.50
2023-04-01T02:03:23.116Z,149.67
2023-04-01T02:04:23.205Z,148.04
2023-04-01T02:05:23.141Z,149.58
2023-04-01T02:06:23.112Z,149.22
2023-04-01T02:07:23.092Z,150.03
2023-04-01T02:08:23.163Z,148.63
2023-04-01T02:09:23.100Z,150.26
2023-04-01T02:10:23.113Z,147.99
2023-04-01T02:11:23.087Z,146.63
2023-04-01T02:12:23.084Z,149.59
2023-04-01T02:13:23.094Z,149.52
2023-04-01T02:14:23.053Z,147.82
2023-04-01T02:15:23.051Z,147.07
2023-04-01T02:16:23.092Z,147.03
2023-04-01T02:17:23.049Z,146.81
2023-04-01T02:18:23.009Z,147.57
2023-04-01T02:19:23.028Z,147.67
2023-04-01T02:20:23.048Z,144.93
2023-04-01T02:21:23.032Z,147.12
2023-04-01T02:22:22.996Z,148.68
2023-04-01T02:23:22.996Z,146.86
2023-04-01T02:24:24.875Z,145.43
2023-04-01T02:25:22.967Z,146.61
2023-04-01T02:26:22.976Z,146.13
2023-04-01T02:27:22.980Z,145.27
2023-04-01T02:28:22.932Z,145.77
2023-04-01T02:29:22.951Z,144.57
2023-04-01T02:30:22.955Z,144.92
2023-04-01T02:31:23.000Z,146.28
2023-04-01T02:32:22.912Z,144.95
2023-04-01T02:33:22.912Z,143.97
2023-04-01T02:34:22.918Z,145.12
2023-04-01T02:35:22.912Z,145.38
2023-04-01T02:36:22.980Z,144.49
2023-04-01T02:37:22.900Z,145.71
2023-04-01T02:38:22.868Z,143.22
2023-04-01T02:39:22.868Z,143.53
2023-04-01T02:40:22.872Z,144.12
2023-04-01T02:41:22.827Z,142.45
2023-04-01T02:42:22.847Z,142.88
2023-04-01T02:43:22.857Z,141.99
2023-04-01T02:44:22.824Z,143.50
2023-04-01T02:45:22.836Z,143.65
2023-04-01T02:46:22.860Z,142.27
2023-04-01T02:47:22.876Z,141.65
2023-04-01T02:48:22.822Z,141.19
2023-04-01T02:49:22.816Z,140.05
2023-04-01T02:50:22.799Z,142.98
2023-04-01T02:51:22.817Z,142.07
2023-04-01T02:52:22.800Z,141.80
2023-04-01T02:53:22.787Z,141.47
2023-04-01T02:54:22.896Z,139.11
2023-04-01T02:55:22.856Z,141.10
2023-04-01T02:56:22.837Z,139.33
2023-04-01T02:57:22.962Z,139.23
2023-04-01T02:58:22.892Z,138.57
2023-04-01T02:59:22.895Z,140.48
2023-04-01T03:00:22.910Z,141.10
2023-04-01T03:01:22.995Z,139.06
2023-04-01T03:02:22.956Z,140.05
2023-04-01T03:03:22.998Z,138.38
2023-04-01T03:04:22.992Z,140.15
2023-04-01T03:05:23.020Z,139.90
2023-04-01T03:06:22.969Z,139.35
2023-04-01T03:07:23.006Z,137.11
2023-04-01T03:08:23.063Z,138.80
2023-04-01T03:09:23.073Z,138.74
2023-04-01T03:10:23.071Z,138.75
2023-04-01T03:11:23.097Z,137.13
2023-04-01T03:12:23.109Z,140.86
2023-04-01T03:13:23.103Z,136.41
2023-04-01T03:14:23.125Z,138.58
2023-04-01T03:15:23.137Z,138.32
2023-04-01T03:16:23.200Z,136.36
2023-04-01T03:17:23.194Z,136.47
2023-04-01T03:18:23.181Z,138.11
2023-04-01T03:19:23.181Z,136.68
2023-04-01T03:20:23.216Z,136.91
2023-04-01T03:21:23.223Z,136.79
2023-04-01T03:22:23.259Z,136.53
2023-04-01T03:23:23.256Z,136.83
2023-04-01T03:24:23.274Z,137.80
2023-04-01T03:25:24.276Z,137.62
2023-04-01T03:26:23.293Z,135.16
2023-04-01T03:27:23.322Z,135.40
2023-04-01T03:28:23.351Z,134.35
2023-04-01T03:29:23.391Z,137.62
2023-04-01T03:30:23.425Z,133.67
2023-04-01T03:31:23.979Z,136.14
2023-04-01T03:32:23.377Z,135.27
2023-04-01T03:33:23.385Z,133.50
2023-04-01T03:34:23.440Z,136.48
2023-04-01T03:35:23.445Z,136.49
2023-04-01T03:36:23.517Z,134.50
2023-04-01T03:37:23.427Z,134.47
2023-04-01T03:38:23.462Z,134.05
2023-04-01T03:39:23.519Z,134.88
2023-04-01T03:40:23.554Z,133.47
2023-04-01T03:41:23.532Z,136.03
2023-04-01T03:42:23.567Z,134.31
2023-04-01T03:43:23.543Z,136.14
2023-04-01T03:44:23.586Z,134.22
2023-04-01T03:45:23.592Z,132.32
2023-04-01T03:46:23.662Z,132.64
2023-04-01T03:47:23.668Z,134.04
2023-04-01T03:48:23.629Z,133.87
2023-04-01T03:49:23.659Z,134.67
2023-04-01T03:50:23.676Z,132.71
2023-04-01T03:51:23.667Z,134.41
2023-04-01T03:52:23.692Z,132.88
2023-04-01T03:53:23.707Z,131.03
2023-04-01T03:54:23.761Z,131.67
2023-04-01T03:55:23.746Z,131.61
2023-04-01T03:56:23.762Z,129.62
2023-04-01T03:57:23.811Z,130.90
2023-04-01T03:58:23.773Z,131.50
2023-04-01T03:59:23.817Z,131.87
2023-04-01T04:00:23.798Z,133.24
2023-04-01T04:01:23.830Z,131.21
2023-04-01T04:02:23.867Z,131.08
2023-04-01T04:03:23.939Z,131.26
2023-04-01T04:04:23.931Z,130.39
2023-04-01T04:05:23.871Z,129.78
2023-04-01T04:06:23.888Z,129.10
2023-04-01T04:07:23.989Z,129.47
2023-04-01T04:08:23.947Z,128.32
2023-04-01T04:09:24.023Z,128.00
2023-04-01T04:10:24.002Z,130.01
2023-04-01T04:11:24.003Z,131.88
2023-04-01T04:12:23.991Z,128.68
2023-04-01T04:13:24.012Z,127.18
2023-04-01T04:14:24.045Z,129.16
2023-04-01T04:15:24.069Z,129.98
2023-04-01T04:16:24.088Z,129.44
2023-04-01T04:17:24.128Z,128.08
2023-04-01T04:18:24.123Z,127.18
2023-04-01T04:19:24.139Z,127.73
2023-04-01T04:20:24.160Z,128.81
2023-04-01T04:21:24.199Z,129.90
2023-04-01T04:22:24.213Z,128.18
2023-04-01T04:23:24.222Z,128.51
2023-04-01T04:24:24.258Z,127.04
2023-04-01T04:25:24.279Z,127.18
2023-04-01T04:26:24.285Z,126.82
2023-04-01T04:27:24.296Z,127.67
2023-04-01T04:28:24.315Z,126.32
2023-04-01T04:29:24.343Z,124.50
2023-04-01T04:30:24.347Z,126.55
2023-04-01T04:31:24.418Z,125.03
2023-04-01T04:32:24.415Z,126.73
2023-04-01T04:33:24.409Z,124.70
2023-04-01T04:34:24.411Z,127.12
2023-04-01T04:35:24.418Z,126.04
2023-04-01T04:36:24.495Z,125.92
2023-04-01T04:37:24.466Z,124.52
2023-04-01T04:38:24.472Z,126.21
2023-04-01T04:39:24.521Z,125.01
2023-04-01T04:40:24.515Z,126.11
2023-04-01T04:41:24.513Z,125.99
2023-04-01T04:42:24.537Z,125.26
2023-04-01T04:43:24.532Z,123.12
2023-04-01T04:44:24.558Z,122.23
2023-04-01T04:45:24.614Z,125.60
2023-04-01T04:46:24.704Z,123.12
2023-04-01T04:47:24.625Z,124.52
2023-04-01T04:48:24.655Z,124.19
2023-04-01T04:49:24.670Z,120.45
2023-04-01T04:50:24.679Z,123.72
2023-04-01T04:51:24.702Z,121.93
2023-04-01T04:52:24.737Z,121.19
2023-04-01T04:53:24.752Z,123.03
2023-04-01T04:54:24.783Z,125.29
2023-04-01T04:55:24.748Z,120.92
2023-04-01T04:56:24.802Z,124.84
2023-04-01T04:57:24.814Z,123.61
2023-04-01T04:58:25.419Z,122.73
2023-04-01T04:59:24.841Z,121.87
2023-04-01T05:00:24.876Z,121.51
2023-04-01T05:01:24.884Z,118.33
2023-04-01T05:02:25.013Z,120.47
2023-04-01T05:03:24.991Z,120.24
2023-04-01T05:04:24.917Z,120.50
2023-04-01T05:05:24.940Z,120.19
2023-04-01T05:06:24.939Z,121.78
2023-04-01T05:07:24.998Z,121.43
2023-04-01T05:08:24.993Z,119.64
2023-04-01T05:09:24.994Z,119.33
2023-04-01T05:10:25.011Z,119.93
2023-04-01T05:11:25.053Z,118.14
2023-04-01T05:12:25.047Z,120.11
2023-04-01T05:13:25.090Z,118.51
2023-04-01T05:14:25.114Z,120.40
2023-04-01T05:15:25.133Z,118.50
2023-04-01T05:17:25.208Z,117.84
2023-04-01T05:18:25.164Z,117.42
2023-04-01T05:19:25.187Z,117.94
2023-04-01T05:20:25.192Z,115.54
2023-04-01T05:21:25.230Z,121.12
2023-04-01T05:22:25.251Z,117.30
2023-04-01T05:23:25.230Z,118.54
2023-04-01T05:24:25.257Z,118.53
2023-04-01T05:25:25.289Z,115.42
2023-04-01T05:26:25.295Z,117.59
2023-04-01T05:27:25.332Z,118.04
2023-04-01T05:28:25.346Z,116.33
2023-04-01T05:29:25.393Z,117.96
2023-04-01T05:30:25.452Z,116.29
2023-04-01T05:31:25.487Z,115.01
2023-04-01T05:32:25.454Z,118.60
2023-04-01T05:33:25.474Z,116.23
2023-04-01T05:34:25.511Z,116.80
2023-04-01T05:35:25.520Z,117.10
2023-04-01T05:36:25.525Z,117.41
2023-04-01T05:37:25.513Z,115.20
2023-04-01T05:38:25.545Z,116.33
2023-04-01T05:39:25.582Z,114.45
2023-04-01T05:40:25.548Z,117.41
2023-04-01T05:41:25.566Z,116.86
2023-04-01T05:42:25.589Z,116.64
2023-04-01T05:43:25.607Z,111.46
2023-04-01T05:44:25.634Z,114.05
2023-04-01T05:45:25.644Z,115.99
2023-04-01T05:46:25.744Z,113.80
2023-04-01T05:47:25.745Z,114.23
2023-04-01T05:48:25.700Z,115.98
2023-04-01T05:49:27.666Z,111.60
2023-04-01T05:50:25.755Z,116.18
2023-04-01T05:51:25.727Z,114.44
2023-04-01T05:52:25.735Z,115.87
2023-04-01T05:53:25.723Z,114.00
2023-04-01T05:54:25.722Z,113.30
2023-04-01T05:55:25.690Z,111.63
2023-04-01T05:56:25.677Z,114.63
2023-04-01T05:57:25.718Z,113.57
2023-04-01T05:58:25.661Z,114.90
2023-04-01T05:59:25.658Z,113.22
2023-04-01T06:00:25.643Z,111.53
2023-04-01T06:01:25.636Z,114.04
2023-04-01T06:02:25.696Z,114.06
2023-04-01T06:03:25.847Z,112.75
2023-04-01T06:04:25.692Z,111.40
2023-04-01T06:05:25.630Z,111.91
2023-04-01T06:06:25.640Z,110.60
2023-04-01T06:07:25.630Z,110.98
2023-04-01T06:08:25.591Z,112.12
2023-04-01T06:09:25.619Z,108.61
2023-04-01T06:10:25.592Z,113.45
2023-04-01T06:11:25.559Z,112.09
2023-04-01T06:12:25.585Z,111.25
2023-04-01T06:13:25.570Z,112.17
2023-04-01T06:14:25.581Z,111.20
2023-04-01T06:15:25.558Z,110.39
2023-04-01T06:16:25.562Z,109.76
2023-04-01T06:17:25.586Z,110.95
2023-04-01T06:18:25.557Z,111.57
2023-04-01T06:19:25.511Z,110.17
2023-04-01T06:20:25.517Z,109.31
2023-04-01T06:21:25.520Z,109.73
2023-04-01T06:22:25.519Z,107.77
2023-04-01T06:23:25.512Z,108.77
2023-04-01T06:24:25.493Z,108.75
2023-04-01T06:25:25.501Z,106.35
2023-04-01T06:26:25.483Z,108.85
2023-04-01T06:27:25.474Z,107.06
2023-04-01T06:28:25.452Z,107.46
2023-04-01T06:29:25.443Z,108.75
2023-04-01T06:30:25.452Z,106.13
2023-04-01T06:31:25.523Z,107.10
2023-04-01T06:32:25.621Z,107.27
2023-04-01T06:33:25.415Z,105.46
2023-04-01T06:34:25.434Z,106.97
2023-04-01T06:35:25.422Z,105.11
2023-04-01T06:36:25.465Z,106.11
2023-04-01T06:37:25.447Z,107.26
2023-04-01T06:38:25.606Z,107.03
2023-04-01T06:39:25.379Z,106.83
2023-04-01T06:40:25.367Z,109.80
2023-04-01T06:41:25.372Z,105.93
2023-04-01T06:42:25.366Z,106.60
2023-04-01T06:43:25.374Z,104.15
2023-04-01T06:44:25.346Z,106.17
2023-04-01T06:45:25.366Z,104.97
2023-04-01T06:46:25.401Z,106.06
2023-04-01T06:47:25.381Z,105.39
2023-04-01T06:48:25.338Z,104.20
2023-04-01T06:49:25.334Z,104.70
2023-04-01T06:50:25.318Z,106.54
2023-04-01T06:51:25.287Z,105.37
2023-04-01T06:52:25.323Z,102.75
2023-04-01T06:53:25.324Z,104.59
2023-04-01T06:54:25.274Z,102.26
2023-04-01T06:55:25.290Z,101.69
2023-04-01T06:56:25.289Z,101.59
2023-04-01T06:57:25.288Z,103.24
2023-04-01T06:58:25.252Z,105.09
2023-04-01T06:59:25.248Z,103.63
2023-04-01T07:00:25.272Z,101.48
2023-04-01T07:01:25.284Z,105.33
2023-04-01T07:02:25.254Z,102.73
2023-04-01T07:03:25.238Z,100.92
2023-04-01T07:04:25.241Z,99.54
2023-04-01T07:05:25.213Z,104.53
2023-04-01T07:06:25.180Z,102.36
2023-04-01T07:07:25.183Z,102.83
2023-04-01T07:08:25.190Z,101.01
2023-04-01T07:09:25.168Z,102.51
2023-04-01T07:10:25.176Z,102.95
2023-04-01T07:11:25.335Z,101.03
2023-04-01T07:12:25.161Z,99.52
2023-04-01T07:13:25.170Z,100.88
2023-04-01T07:14:25.137Z,100.74
2023-04-01T07:15:25.135Z,100.46
2023-04-01T07:16:25.160Z,101.82
2023-04-01T07:17:25.202Z,101.26
2023-04-01T07:18:25.130Z,102.71
2023-04-01T07:19:25.086Z,101.30
2023-04-01T07:20:25.129Z,100.50
2023-04-01T07:21:25.116Z,97.16
2023-04-01T07:22:25.062Z,100.23
2023-04-01T07:23:25.099Z,98.22
2023-04-01T07:24:25.056Z,100.31
2023-04-01T07:25:25.273Z,98.88
2023-04-01T07:26:25.060Z,98.70
2023-04-01T07:27:25.058Z,98.19
2023-04-01T07:28:25.039Z,96.94
2023-04-01T07:29:25.027Z,96.99
2023-04-01T07:30:25.083Z,99.86
2023-04-01T07:31:25.021Z,97.69
2023-04-01T07:32:25.013Z,99.16
2023-04-01T07:33:24.980Z,99.11
2023-04-01T07:34:24.970Z,95.63
2023-04-01T07:35:25.000Z,96.27
2023-04-01T07:36:25.017Z,96.60
2023-04-01T07:37:24.973Z,99.88
2023-04-01T07:38:25.039Z,97.47
2023-04-01T07:39:24.960Z,94.19
2023-04-01T07:40:25.004Z,96.56
2023-04-01T07:41:24.937Z,96.83
2023-04-01T07:42:24.967Z,95.37
2023-04-01T07:43:24.926Z,94.61
2023-04-01T07:44:24.915Z,96.84
2023-04-01T07:45:24.938Z,95.53
2023-04-01T07:46:24.952Z,96.97
2023-04-01T07:47:24.934Z,93.49
2023-04-01T07:48:24.919Z,93.13
2023-04-01T07:49:24.896Z,96.25
2023-04-01T07:50:24.961Z,94.58
2023-04-01T07:51:24.923Z,93.64
2023-04-01T07:52:24.924Z,94.64
2023-04-01T07:53:24.929Z,94.30
2023-04-01T07:54:24.907Z,96.24
2023-04-01T07:55:24.935Z,94.82
2023-04-01T07:56:24.900Z,96.13
2023-04-01T07:57:24.936Z,92.31
2023-04-01T07:58:24.939Z,93.94
2023-04-01T07:59:24.938Z,92.52
2023-04-01T08:00:24.930Z,95.05
2023-04-01T08:01:24.931Z,93.64
2023-04-01T08:02:24.986Z,92.65
2023-04-01T08:03:24.990Z,92.82
2023-04-01T08:04:24.940Z,94.33
2023-04-01T08:05:24.939Z,93.21
2023-04-01T08:06:24.925Z,92.54
2023-04-01T08:07:24.922Z,92.56
2023-04-01T08:08:24.929Z,92.44
2023-04-01T08:09:24.894Z,92.22
2023-04-01T08:10:24.938Z,94.37
2023-04-01T08:11:24.897Z,94.28
2023-04-01T08:12:24.906Z,91.72
2023-04-01T08:13:24.888Z,92.79
2023-04-01T08:14:24.897Z,93.34
2023-04-01T08:15:24.903Z,93.26
2023-04-01T08:16:24.955Z,92.90
2023-04-01T08:17:24.915Z,90.60
2023-04-01T08:18:24.907Z,92.84
2023-04-01T08:19:24.871Z,91.87
2023-04-01T08:20:24.864Z,91.58
2023-04-01T08:21:24.876Z,91.40
2023-04-01T08:22:24.867Z,90.52
2023-04-01T08:23:24.870Z,93.13
2023-04-01T08:24:27.828Z,90.51
2023-04-01T08:25:24.868Z,90.80
2023-04-01T08:26:24.874Z,90.95
2023-04-01T08:27:24.854Z,91.14
2023-04-01T08:28:24.824Z,93.10
2023-04-01T08:29:24.831Z,90.67
2023-04-01T08:30:25.478Z,92.27
2023-04-01T08:31:24.865Z,93.15
2023-04-01T08:32:24.863Z,92.25
2023-04-01T08:33:24.806Z,88.35
2023-04-01T08:34:24.792Z,91.93
2023-04-01T08:35:24.798Z,93.12
2023-04-01T08:36:24.842Z,92.67
2023-04-01T08:37:24.849Z,91.29
2023-04-01T08:38:24.869Z,92.77
2023-04-01T08:39:24.898Z,91.81
2023-04-01T08:40:24.959Z,91.27
2023-04-01T08:41:24.988Z,90.85
2023-04-01T08:42:25.063Z,89.59
2023-04-01T08:43:25.118Z,90.52
2023-04-01T08:44:25.200Z,87.61
2023-04-01T08:45:25.243Z,87.99
2023-04-01T08:46:25.306Z,91.67
2023-04-01T08:47:25.386Z,90.79
2023-04-01T08:48:25.419Z,90.65
2023-04-01T08:49:25.510Z,88.43
2023-04-01T08:50:25.560Z,88.33
2023-04-01T08:51:25.625Z,88.75
2023-04-01T08:52:25.676Z,87.15
2023-04-01T08:53:25.719Z,85.67
2023-04-01T08:54:25.781Z,84.78
2023-04-01T08:55:25.849Z,85.74
2023-04-01T08:56:25.913Z,86.63
2023-04-01T08:57:26.065Z,86.55
2023-04-01T08:58:26.040Z,84.79
2023-04-01T08:59:26.107Z,85.09
2023-04-01T09:00:26.180Z,84.90
2023-04-01T09:01:26.202Z,82.91
2023-04-01T09:02:26.359Z,85.79
2023-04-01T09:03:26.435Z,85.04
2023-04-01T09:04:26.443Z,84.26
2023-04-01T09:05:26.437Z,82.59
2023-04-01T09:06:26.474Z,80.41
2023-04-01T09:07:26.529Z,79.40
2023-04-01T09:08:26.621Z,82.89
2023-04-01T09:09:26.610Z,80.39
2023-04-01T09:10:26.693Z,80.82
2023-04-01T09:11:26.742Z,80.85
2023-04-01T09:12:26.793Z,82.49
2023-04-01T09:13:26.828Z,80.25
2023-04-01T09:14:26.865Z,83.40
2023-04-01T09:15:26.914Z,81.24
2023-04-01T09:16:27.011Z,79.93
2023-04-01T09:17:27.046Z,84.03
2023-04-01T09:18:27.066Z,79.30
2023-04-01T09:19:27.107Z,80.48
2023-04-01T09:20:27.181Z,78.76
2023-04-01T09:21:27.235Z,79.90
2023-04-01T09:22:27.222Z,77.84
2023-04-01T09:23:27.268Z,80.48
2023-04-01T09:24:27.313Z,78.61
2023-04-01T09:25:27.410Z,79.93
2023-04-01T09:26:27.373Z,81.88
2023-04-01T09:27:27.444Z,81.78
2023-04-01T09:28:27.467Z,80.39
2023-04-01T09:29:27.529Z,78.79
2023-04-01T09:30:27.536Z,80.24
2023-04-01T09:31:27.712Z,78.96
2023-04-01T09:32:27.712Z,78.61
2023-04-01T09:33:27.673Z,80.24
2023-04-01T09:34:27.699Z,80.12
2023-04-01T09:35:27.731Z,77.83
2023-04-01T09:36:27.752Z,78.88
2023-04-01T09:37:27.807Z,79.63
2023-04-01T09:38:27.832Z,78.49
2023-04-01T09:39:27.830Z,78.27
2023-04-01T09:40:27.898Z,79.90
2023-04-01T09:41:27.936Z,80.28
2023-04-01T09:42:27.923Z,77.27
2023-04-01T09:43:27.974Z,75.55
2023-04-01T09:44:27.978Z,79.00
2023-04-01T09:45:28.023Z,79.12
2023-04-01T09:46:28.094Z,77.43
2023-04-01T09:47:28.108Z,75.42
2023-04-01T09:48:28.100Z,77.77
2023-04-01T09:49:28.088Z,76.98
2023-04-01T09:50:28.090Z,78.27
2023-04-01T09:51:28.132Z,78.45
2023-04-01T09:52:28.161Z,77.44
2023-04-01T09:53:28.149Z,77.92
2023-04-01T09:54:28.164Z,77.00
2023-04-01T09:55:28.218Z,76.05
2023-04-01T09:56:28.249Z,77.50
2023-04-01T09:57:28.324Z,78.58
2023-04-01T09:58:28.254Z,79.19
2023-04-01T09:59:28.260Z,76.90
2023-04-01T10:00:28.231Z,76.10
2023-04-01T10:01:28.290Z,78.00
2023-04-01T10:02:28.390Z,75.90
2023-04-01T10:03:29.684Z,76.49
2023-04-01T10:04:28.289Z,77.16
2023-04-01T10:05:28.350Z,78.14
2023-04-01T10:06:28.345Z,78.39
2023-04-01T10:07:28.351Z,78.02
2023-04-01T10:08:28.389Z,76.37
2023-04-01T10:09:28.355Z,77.92
2023-04-01T10:10:28.368Z,76.61
2023-04-01T10:11:28.412Z,77.69
2023-04-01T10:12:28.353Z,75.20
2023-04-01T10:13:28.394Z,76.12
2023-04-01T10:14:28.384Z,77.20
2023-04-01T10:15:28.406Z,76.82
2023-04-01T10:16:28.458Z,74.03
2023-04-01T10:17:28.445Z,76.92
2023-04-01T10:18:28.421Z,78.91
2023-04-01T10:19:28.424Z,76.76
2023-04-01T10:20:28.440Z,76.82
2023-04-01T10:21:28.444Z,79.38
2023-04-01T10:22:28.445Z,76.44
2023-04-01T10:23:28.440Z,75.77
2023-04-01T10:24:28.468Z,76.36
2023-04-01T10:25:28.471Z,75.59
2023-04-01T10:26:28.505Z,77.81
2023-04-01T10:27:28.471Z,72.50
2023-04-01T10:28:28.545Z,76.15
2023-04-01T10:29:28.488Z,75.97
2023-04-01T10:30:28.507Z,71.90
2023-04-01T10:31:28.556Z,75.90
2023-04-01T10:32:28.537Z,75.78
2023-04-01T10:33:28.464Z,74.28
2023-04-01T10:34:28.476Z,72.53
2023-04-01T10:35:28.493Z,76.66
2023-04-01T10:36:28.480Z,75.87
2023-04-01T10:37:28.471Z,74.65
2023-04-01T10:38:28.561Z,73.71
2023-04-01T10:39:28.505Z,74.30
2023-04-01T10:40:28.471Z,73.76
2023-04-01T10:41:28.496Z,73.55
2023-04-01T10:42:28.496Z,73.06
2023-04-01T10:43:28.518Z,74.76
2023-04-01T10:44:28.494Z,72.67
2023-04-01T10:45:28.546Z,75.19
2023-04-01T10:46:28.594Z,75.24
2023-04-01T10:47:28.556Z,76.16
2023-04-01T10:48:28.472Z,73.15
2023-04-01T10:49:28.459Z,71.60
2023-04-01T10:50:28.494Z,72.88
2023-04-01T10:51:28.466Z,73.73
2023-04-01T10:52:28.473Z,71.43
2023-04-01T10:53:28.440Z,73.42
2023-04-01T10:54:28.455Z,73.84
2023-04-01T10:55:28.458Z,72.74
2023-04-01T10:56:28.441Z,72.53
2023-04-01T10:57:28.463Z,72.08
2023-04-01T10:58:28.414Z,75.26
2023-04-01T10:59:28.460Z,74.23
2023-04-01T11:00:28.450Z,74.99
2023-04-01T11:01:28.484Z,74.44
2023-04-01T11:02:28.518Z,72.61
2023-04-01T11:03:28.571Z,73.50
2023-04-01T11:04:28.438Z,73.34
2023-04-01T11:05:28.477Z,73.00
2023-04-01T11:06:28.474Z,74.66
2023-04-01T11:07:28.512Z,74.83
2023-04-01T11:08:28.527Z,71.94
2023-04-01T11:09:28.531Z,72.69
2023-04-01T11:10:28.590Z,71.75
2023-04-01T11:11:28.595Z,73.43
2023-04-01T11:12:28.627Z,75.26
2023-04-01T11:13:28.657Z,73.34
2023-04-01T11:14:28.657Z,74.11
2023-04-01T11:15:28.686Z,72.41
2023-04-01T11:16:28.784Z,72.22
2023-04-01T11:17:28.742Z,73.27
2023-04-01T11:18:28.777Z,73.95
2023-04-01T11:19:28.809Z,71.15
2023-04-01T11:20:28.811Z,72.54
2023-04-01T11:21:28.856Z,74.19
2023-04-01T11:22:28.876Z,71.65
2023-04-01T11:23:28.972Z,72.98
2023-04-01T11:24:29.000Z,72.67
2023-04-01T11:25:29.087Z,72.44
2023-04-01T11:26:29.133Z,72.40
2023-04-01T11:27:29.179Z,70.72
2023-04-01T11:28:29.258Z,71.42
2023-04-01T11:29:29.317Z,74.23
2023-04-01T11:30:29.357Z,72.75
2023-04-01T11:31:29.510Z,73.68
2023-04-01T11:32:29.540Z,71.92
2023-04-01T11:33:29.566Z,73.27
2023-04-01T11:34:29.613Z,72.61
2023-04-01T11:35:29.675Z,73.73
2023-04-01T11:36:29.789Z,71.84
2023-04-01T11:37:29.799Z,72.95
2023-04-01T11:38:30.588Z,71.96
2023-04-01T11:39:29.928Z,72.08
2023-04-01T11:40:30.004Z,70.88
2023-04-01T11:41:30.051Z,70.69
2023-04-01T11:42:30.120Z,74.10
2023-04-01T11:43:33.460Z,71.50
2023-04-01T11:44:30.139Z,74.40
2023-04-01T11:45:30.163Z,74.82
2023-04-01T11:46:30.145Z,72.92
2023-04-01T11:47:30.192Z,72.04
2023-04-01T11:48:30.117Z,69.60
2023-04-01T11:49:30.128Z,71.57
2023-04-01T11:50:30.131Z,70.43
2023-04-01T11:51:30.131Z,71.33
2023-04-01T11:52:30.133Z,70.43
2023-04-01T11:53:30.106Z,70.92
2023-04-01T11:54:30.095Z,72.24
2023-04-01T11:55:30.079Z,69.03
2023-04-01T11:56:30.086Z,71.01
2023-04-01T11:57:30.189Z,72.58
2023-04-01T11:58:30.082Z,73.46
2023-04-01T11:59:30.098Z,72.23
2023-04-01T12:00:30.033Z,71.52
2023-04-01T12:01:30.060Z,70.69
2023-04-01T12:02:30.144Z,70.73
2023-04-01T12:03:30.165Z,70.03
2023-04-01T12:04:30.078Z,72.10
2023-04-01T12:05:30.068Z,71.82
2023-04-01T12:06:30.040Z,71.92
2023-04-01T12:07:30.010Z,73.44
2023-04-01T12:08:30.123Z,70.73
2023-04-01T12:09:30.167Z,71.86
2023-04-01T12:10:30.236Z,70.11
2023-04-01T12:11:30.277Z,73.36
2023-04-01T12:12:30.344Z,71.44
2023-04-01T12:13:30.401Z,73.04
2023-04-01T12:14:30.439Z,72.56
2023-04-01T12:15:30.528Z,72.84
2023-04-01T12:16:30.590Z,72.55
2023-04-01T12:17:30.714Z,68.95
2023-04-01T12:18:30.673Z,71.70
2023-04-01T12:19:30.741Z,68.97
2023-04-01T12:20:30.759Z,69.22
2023-04-01T12:21:30.829Z,68.87
2023-04-01T12:22:32.496Z,69.32
2023-04-01T12:23:30.879Z,70.68
2023-04-01T12:24:30.862Z,71.41
2023-04-01T12:25:30.993Z,73.53
2023-04-01T12:26:30.878Z,68.00
2023-04-01T12:27:30.831Z,70.28
2023-04-01T12:28:30.855Z,69.85
2023-04-01T12:29:30.813Z,72.37
2023-04-01T12:30:30.817Z,68.58
2023-04-01T12:31:30.836Z,70.69
2023-04-01T12:32:30.870Z,70.91
2023-04-01T12:33:30.799Z,72.19
2023-04-01T12:34:30.794Z,69.59
2023-04-01T12:35:30.885Z,72.10
2023-04-01T12:36:30.785Z,69.83
2023-04-01T12:37:30.797Z,69.89
2023-04-01T12:38:30.771Z,71.29
2023-04-01T12:39:30.778Z,69.17